CST3 weather

Montreal / St-Lazare Airport
Montréal, Quebec, Canada

Public forecast

Using degrees Celsius for public forecast. Weather courtesy of forecast.io.

Closest aviation weather report (METAR) to Montreal / St-Lazare Airport

Closest report is Montreal / Pierre Elliott Trudeau International Airport, 17.3 nm (32.0 km) ENE. Retrieved 2020/07/10 00:00 UTC (43 minutes ago):

CYUL 100000Z 15007KT 15SM FEW050 FEW110 FEW250 32/21 A2988 RMK CU1AC1CI1 CU TR AC TR CI TR SLP118 DENSITY ALT 2200FT

Closest aviation forecast (TAF) to Montreal / St-Lazare Airport

Closest forecast is Montreal / Pierre Elliott Trudeau International Airport, 17.3 nm (32.0 km) ENE. Retrieved 2020-07-10 00:42 UTC (1 minute ago):

TAF TAF CYUL 092338Z 1000/1024 15008KT P6SM FEW060 BECMG 1000/1002 VRB03KT FM101400 16006KT P6SM FEW060 SCT240 FM101900 15012KT P6SM BKN060 TEMPO 1019/1023 P6SM VCTS BKN060CB RMK NXT FCST BY 100300Z